createdAt,value
2019-04-21T00:01:56.381Z,10.20
2019-04-21T00:04:40.822Z,10.19
2019-04-21T00:07:17.275Z,10.16
2019-04-21T00:14:39.735Z,9.95
2019-04-21T00:17:05.346Z,9.92
2019-04-21T00:19:39.496Z,9.80
2019-04-21T00:22:20.343Z,9.72
2019-04-21T00:24:50.722Z,9.67
2019-04-21T00:27:26.624Z,9.46
2019-04-21T00:29:59.124Z,9.42
2019-04-21T00:32:22.200Z,9.35
2019-04-21T00:34:42.044Z,9.34
2019-04-21T00:37:18.923Z,9.38
2019-04-21T00:42:30.351Z,9.29
2019-04-21T00:45:00.830Z,9.26
2019-04-21T00:47:31.204Z,9.13
2019-04-21T00:50:02.239Z,9.14
2019-04-21T00:52:49.201Z,9.20
2019-04-21T00:57:45.296Z,9.19
2019-04-21T01:00:16.454Z,9.13
2019-04-21T01:02:44.467Z,9.08
2019-04-21T01:05:11.188Z,9.09
2019-04-21T01:07:37.292Z,9.04
2019-04-21T01:10:03.889Z,9.08
2019-04-21T01:12:44.516Z,8.95
2019-04-21T01:15:18.476Z,8.75
2019-04-21T01:17:44.858Z,8.67
2019-04-21T01:20:01.249Z,8.65
2019-04-21T01:22:19.244Z,8.56
2019-04-21T01:24:57.964Z,8.55
2019-04-21T01:27:39.805Z,8.63
2019-04-21T01:30:14.657Z,8.59
2019-04-21T01:32:46.862Z,8.53
2019-04-21T01:35:12.205Z,8.48
2019-04-21T01:37:45.311Z,8.55
2019-04-21T01:40:16.888Z,8.52
2019-04-21T01:42:48.089Z,8.46
2019-04-21T01:45:15.724Z,8.36
2019-04-21T01:47:40.879Z,8.16
2019-04-21T01:50:05.728Z,8.18
2019-04-21T01:52:54.703Z,8.14
2019-04-21T01:55:19.488Z,8.18
2019-04-21T01:57:51.246Z,8.18
2019-04-21T02:00:14.467Z,8.10
2019-04-21T02:02:59.391Z,8.05
2019-04-21T02:05:34.416Z,8.15
2019-04-21T02:07:54.707Z,8.04
2019-04-21T02:10:34.942Z,7.91
2019-04-21T02:12:56.879Z,7.93
2019-04-21T02:15:31.126Z,7.92
2019-04-21T02:17:59.455Z,7.89
2019-04-21T02:20:24.429Z,7.91
2019-04-21T02:23:11.064Z,7.89
2019-04-21T02:25:31.791Z,7.85
2019-04-21T02:28:04.778Z,7.81
2019-04-21T02:30:47.484Z,7.83
2019-04-21T02:33:18.556Z,7.83
2019-04-21T02:35:52.757Z,7.70
2019-04-21T02:50:47.241Z,7.80
2019-04-21T02:53:22.633Z,7.61
2019-04-21T02:55:44.559Z,7.56
2019-04-21T03:00:55.536Z,7.44
2019-04-21T03:03:36.462Z,7.48
2019-04-21T03:06:08.766Z,7.40
2019-04-21T03:08:44.852Z,7.46
2019-04-21T03:13:42.982Z,7.47
2019-04-21T03:16:20.152Z,7.44
2019-04-21T03:18:46.511Z,7.47
2019-04-21T03:28:39.573Z,7.15
2019-04-21T03:41:10.692Z,7.14
2019-04-21T03:46:12.070Z,7.03
2019-04-21T03:48:41.018Z,7.05
2019-04-21T03:51:15.993Z,6.92
2019-04-21T03:53:40.449Z,6.81
2019-04-21T03:56:15.521Z,6.74
2019-04-21T03:58:55.339Z,6.73
2019-04-21T04:01:28.508Z,6.54
2019-04-21T04:04:06.707Z,6.60
2019-04-21T04:06:36.304Z,6.67
2019-04-21T04:09:09.677Z,6.57
2019-04-21T04:11:37.730Z,6.65
2019-04-21T04:19:09.622Z,6.62
2019-04-21T04:21:39.998Z,6.58
2019-04-21T04:24:07.179Z,6.62
2019-04-21T04:29:12.454Z,6.60
2019-04-21T04:31:37.792Z,6.57
2019-04-21T04:34:12.633Z,6.60
2019-04-21T04:39:36.263Z,6.46
2019-04-21T04:47:05.414Z,6.31
2019-04-21T04:52:56.975Z,6.37
2019-04-21T04:54:47.560Z,6.43
2019-04-21T04:57:07.975Z,6.42
2019-04-21T05:02:11.346Z,6.44
2019-04-21T05:04:39.762Z,6.48
2019-04-21T05:09:32.008Z,6.59
2019-04-21T05:11:55.785Z,6.62
2019-04-21T05:14:33.777Z,6.59
2019-04-21T05:17:21.509Z,6.62
2019-04-21T05:22:05.832Z,6.75
2019-04-21T05:24:24.987Z,6.81
2019-04-21T05:26:47.961Z,6.81
2019-04-21T05:29:20.478Z,6.86
2019-04-21T05:32:09.232Z,6.90
2019-04-21T05:34:42.409Z,7.00
2019-04-21T05:37:25.947Z,7.03
2019-04-21T05:39:53.511Z,7.14
2019-04-21T05:42:23.680Z,7.22
2019-04-21T05:45:01.596Z,7.30
2019-04-21T05:47:35.480Z,7.27
2019-04-21T05:50:06.495Z,7.39
2019-04-21T05:52:35.660Z,7.47
2019-04-21T05:55:13.918Z,7.65
2019-04-21T05:57:42.648Z,7.90
2019-04-21T06:00:09.907Z,8.44
2019-04-21T06:02:48.108Z,9.12
2019-04-21T06:05:20.667Z,9.81
2019-04-21T06:07:46.127Z,10.06
2019-04-21T06:10:12.381Z,10.88
2019-04-21T06:12:56.673Z,11.33
2019-04-21T06:15:13.795Z,12.11
2019-04-21T06:17:50.575Z,12.41
2019-04-21T06:20:21.083Z,12.61
2019-04-21T06:22:53.240Z,12.97
2019-04-21T06:27:55.697Z,12.86
2019-04-21T06:30:20.728Z,13.41
2019-04-21T06:32:50.599Z,13.56
2019-04-21T06:35:45.788Z,14.05
2019-04-21T06:38:06.551Z,14.40
2019-04-21T06:40:35.824Z,14.73
2019-04-21T06:43:16.204Z,14.89
2019-04-21T06:45:36.601Z,15.20
2019-04-21T06:48:04.705Z,14.98
2019-04-21T06:50:39.890Z,14.97
2019-04-21T06:53:14.579Z,14.34
2019-04-21T06:55:35.248Z,14.73
2019-04-21T06:58:08.340Z,15.03
2019-04-21T07:00:30.457Z,14.90
2019-04-21T07:03:16.001Z,16.03
2019-04-21T07:05:35.832Z,16.18
2019-04-21T07:08:21.881Z,16.01
2019-04-21T07:10:31.779Z,15.46
2019-04-21T07:13:03.191Z,15.21
2019-04-21T07:15:36.981Z,14.64
2019-04-21T07:18:12.615Z,15.20
2019-04-21T07:20:38.005Z,15.36
2019-04-21T07:23:09.305Z,14.58
2019-04-21T07:25:40.929Z,14.88
2019-04-21T07:28:12.734Z,15.48
2019-04-21T07:30:43.651Z,15.50
2019-04-21T07:33:33.589Z,16.12
2019-04-21T07:35:37.464Z,16.28
2019-04-21T07:38:09.677Z,16.58
2019-04-21T07:40:35.336Z,17.61
2019-04-21T07:43:09.050Z,17.98
2019-04-21T07:45:35.110Z,18.36
2019-04-21T07:48:13.718Z,18.31
2019-04-21T07:50:48.728Z,17.82
2019-04-21T07:53:32.295Z,18.58
2019-04-21T07:55:35.798Z,18.80
2019-04-21T07:58:20.972Z,18.70
2019-04-21T08:00:57.731Z,19.12
2019-04-21T08:03:30.317Z,19.49
2019-04-21T08:05:59.040Z,19.94
2019-04-21T08:08:20.752Z,20.08
2019-04-21T08:10:50.733Z,20.26
2019-04-21T08:13:34.253Z,20.37
2019-04-21T08:16:12.782Z,20.61
2019-04-21T08:18:27.017Z,20.33
2019-04-21T08:21:02.745Z,19.93
2019-04-21T08:23:37.872Z,20.59
2019-04-21T08:28:39.198Z,20.81
2019-04-21T08:31:07.978Z,20.35
2019-04-21T08:33:47.007Z,20.09
2019-04-21T08:36:17.470Z,20.06
2019-04-21T08:38:51.023Z,19.77
2019-04-21T08:41:12.334Z,19.49
2019-04-21T08:43:45.594Z,19.60
2019-04-21T08:46:19.865Z,19.49
2019-04-21T08:48:52.628Z,19.52
2019-04-21T08:51:30.254Z,19.23
2019-04-21T08:53:54.705Z,19.23
2019-04-21T08:56:21.294Z,19.51
2019-04-21T08:58:57.620Z,19.60
2019-04-21T09:01:43.098Z,19.54
2019-04-21T09:04:13.374Z,19.61
2019-04-21T09:07:04.839Z,19.11
2019-04-21T09:09:25.307Z,18.52
2019-04-21T09:11:50.932Z,18.74
2019-04-21T09:14:19.113Z,19.13
2019-04-21T09:16:47.560Z,19.37
2019-04-21T09:19:35.447Z,19.50
2019-04-21T09:21:50.231Z,19.21
2019-04-21T09:24:22.268Z,19.36
2019-04-21T09:26:52.719Z,19.66
2019-04-21T09:29:10.804Z,19.52
2019-04-21T09:31:39.143Z,19.18
2019-04-21T09:34:06.619Z,19.10
2019-04-21T09:36:41.298Z,19.35
2019-04-21T09:39:12.999Z,19.36
2019-04-21T09:41:38.209Z,19.62
2019-04-21T09:44:13.959Z,19.73
2019-04-21T09:46:44.432Z,19.49
2019-04-21T09:49:12.160Z,19.37
2019-04-21T09:51:37.281Z,19.29
2019-04-21T09:54:13.614Z,19.42
2019-04-21T09:56:46.243Z,19.60
2019-04-21T09:59:23.714Z,19.70
2019-04-21T10:01:58.918Z,19.96
2019-04-21T10:04:18.543Z,19.12
2019-04-21T10:06:47.673Z,19.84
2019-04-21T10:09:19.566Z,19.84
2019-04-21T10:11:46.550Z,19.95
2019-04-21T10:14:15.065Z,19.95
2019-04-21T10:16:45.243Z,19.81
2019-04-21T10:19:13.670Z,19.92
2019-04-21T10:21:42.446Z,20.19
2019-04-21T10:24:12.456Z,20.22
2019-04-21T10:26:41.318Z,20.02
2019-04-21T10:29:19.796Z,20.04
2019-04-21T10:31:41.001Z,20.19
2019-04-21T10:34:09.529Z,20.11
2019-04-21T10:36:38.065Z,20.20
2019-04-21T10:39:07.111Z,20.20
2019-04-21T10:41:35.668Z,19.76
2019-04-21T10:44:05.053Z,19.76
2019-04-21T10:46:34.897Z,20.27
2019-04-21T10:49:04.439Z,19.98
2019-04-21T10:51:33.129Z,20.09
2019-04-21T10:54:02.031Z,20.31
2019-04-21T10:56:36.334Z,20.25
2019-04-21T10:59:00.752Z,20.17
2019-04-21T11:01:29.525Z,20.54
2019-04-21T11:04:00.635Z,20.45
2019-04-21T11:06:30.802Z,20.45
2019-04-21T11:09:01.499Z,20.46
2019-04-21T11:11:30.183Z,20.68
2019-04-21T11:13:59.169Z,20.42
2019-04-21T11:16:28.890Z,20.51
2019-04-21T11:18:57.948Z,20.63
2019-04-21T11:21:27.132Z,20.58
2019-04-21T11:23:56.507Z,20.37
2019-04-21T11:26:25.290Z,20.40
2019-04-21T11:28:54.933Z,20.54
2019-04-21T11:31:24.937Z,20.63
2019-04-21T11:33:53.690Z,20.56
2019-04-21T11:36:22.206Z,20.32
2019-04-21T11:39:07.526Z,20.43
2019-04-21T11:41:23.834Z,20.56
2019-04-21T11:43:53.083Z,20.68
2019-04-21T11:46:22.534Z,20.71
2019-04-21T11:48:52.348Z,20.71
2019-04-21T11:51:21.106Z,20.89
2019-04-21T11:53:50.678Z,20.77
2019-04-21T11:56:19.398Z,20.87
2019-04-21T11:58:47.908Z,20.92
2019-04-21T12:01:16.421Z,20.89
2019-04-21T12:03:45.455Z,20.95
2019-04-21T12:06:15.340Z,20.99
2019-04-21T12:08:48.173Z,20.81
2019-04-21T12:11:15.866Z,20.68
2019-04-21T12:13:45.884Z,20.69
2019-04-21T12:16:14.996Z,20.78
2019-04-21T12:18:45.004Z,20.46
2019-04-21T12:21:15.744Z,20.68
2019-04-21T12:23:44.747Z,20.62
2019-04-21T12:26:13.923Z,20.74
2019-04-21T12:28:43.909Z,20.76
2019-04-21T12:31:15.744Z,20.76
2019-04-21T12:33:51.955Z,20.91
2019-04-21T12:36:21.920Z,20.82
2019-04-21T12:38:55.817Z,20.69
2019-04-21T12:41:20.823Z,20.62
2019-04-21T12:43:50.676Z,20.90
2019-04-21T12:46:20.051Z,21.03
2019-04-21T12:48:49.688Z,21.07
2019-04-21T12:51:19.737Z,21.05
2019-04-21T12:53:49.766Z,21.08
2019-04-21T12:56:19.728Z,21.10
2019-04-21T12:58:49.058Z,21.09
2019-04-21T13:01:18.894Z,21.09
2019-04-21T13:03:48.013Z,21.13
2019-04-21T13:06:16.662Z,21.08
2019-04-21T13:08:53.365Z,21.04
2019-04-21T13:11:15.387Z,21.07
2019-04-21T13:13:43.955Z,21.28
2019-04-21T13:16:13.682Z,21.18
2019-04-21T13:18:42.543Z,21.26
2019-04-21T13:21:12.080Z,21.10
2019-04-21T13:23:41.159Z,21.03
2019-04-21T13:26:11.285Z,21.11
2019-04-21T13:28:40.431Z,21.39
2019-04-21T13:31:08.987Z,21.37
2019-04-21T13:33:39.935Z,21.42
2019-04-21T13:36:09.673Z,21.21
2019-04-21T13:38:50.482Z,21.46
2019-04-21T13:41:33.389Z,21.49
2019-04-21T13:43:50.864Z,21.44
2019-04-21T13:46:20.652Z,21.30
2019-04-21T13:48:50.723Z,21.51
2019-04-21T13:51:19.566Z,21.35
2019-04-21T13:53:49.443Z,21.41
2019-04-21T13:56:18.489Z,21.27
2019-04-21T13:58:48.291Z,21.34
2019-04-21T14:01:18.048Z,21.47
2019-04-21T14:03:47.493Z,21.45
2019-04-21T14:06:16.309Z,21.43
2019-04-21T14:08:46.680Z,21.54
2019-04-21T14:11:15.610Z,21.51
2019-04-21T14:13:44.787Z,21.42
2019-04-21T14:16:14.036Z,21.38
2019-04-21T14:18:42.832Z,21.53
2019-04-21T14:21:11.408Z,21.46
2019-04-21T14:23:44.579Z,21.54
2019-04-21T14:26:10.095Z,21.50
2019-04-21T14:28:43.527Z,21.43
2019-04-21T14:31:12.769Z,21.49
2019-04-21T14:33:41.191Z,21.66
2019-04-21T14:36:10.696Z,21.55
2019-04-21T14:38:40.688Z,21.65
2019-04-21T14:41:10.335Z,21.48
2019-04-21T14:43:39.067Z,21.54
2019-04-21T14:46:29.122Z,21.58
2019-04-21T14:49:03.610Z,21.49
2019-04-21T14:51:41.130Z,21.48
2019-04-21T14:54:24.699Z,21.49
2019-04-21T14:56:53.640Z,21.43
2019-04-21T14:59:22.150Z,21.47
2019-04-21T15:01:51.805Z,21.46
2019-04-21T15:04:22.350Z,21.53
2019-04-21T15:06:51.733Z,21.60
2019-04-21T15:09:20.995Z,21.61
2019-04-21T15:11:49.931Z,21.48
2019-04-21T15:14:20.002Z,21.61
2019-04-21T15:16:49.071Z,21.54
2019-04-21T15:19:17.819Z,21.54
2019-04-21T15:21:46.279Z,21.48
2019-04-21T15:24:16.121Z,21.48
2019-04-21T15:26:46.327Z,21.50
2019-04-21T15:29:15.178Z,21.51
2019-04-21T15:31:44.812Z,21.66
2019-04-21T15:34:15.012Z,21.72
2019-04-21T15:36:44.057Z,21.65
2019-04-21T15:39:13.993Z,21.69
2019-04-21T15:41:42.876Z,21.80
2019-04-21T15:44:12.489Z,21.74
2019-04-21T15:46:41.883Z,21.81
2019-04-21T15:49:11.293Z,21.63
2019-04-21T15:51:40.069Z,21.63
2019-04-21T15:54:08.895Z,21.51
2019-04-21T15:56:39.068Z,21.46
2019-04-21T15:59:10.395Z,21.29
2019-04-21T16:01:40.836Z,21.29
2019-04-21T16:04:10.759Z,21.33
2019-04-21T16:06:39.500Z,21.35
2019-04-21T16:09:16.194Z,21.42
2019-04-21T16:11:39.940Z,21.36
2019-04-21T16:14:10.026Z,21.31
2019-04-21T16:16:39.276Z,21.21
2019-04-21T16:19:08.243Z,21.07
2019-04-21T16:21:40.536Z,21.16
2019-04-21T16:24:06.996Z,21.02
2019-04-21T16:26:35.571Z,20.97
2019-04-21T16:29:04.995Z,20.95
2019-04-21T16:31:34.333Z,20.95
2019-04-21T16:34:05.120Z,20.90
2019-04-21T16:36:33.911Z,20.95
2019-04-21T16:39:02.362Z,20.87
2019-04-21T16:41:32.100Z,20.82
2019-04-21T16:44:00.924Z,20.78
2019-04-21T16:46:29.590Z,20.79
2019-04-21T16:48:58.027Z,20.68
2019-04-21T16:51:26.505Z,20.53
2019-04-21T16:53:57.710Z,20.51
2019-04-21T16:56:29.101Z,20.54
2019-04-21T16:59:00.795Z,20.56
2019-04-21T17:01:31.856Z,20.55
2019-04-21T17:04:00.542Z,20.58
2019-04-21T17:06:29.223Z,20.48
2019-04-21T17:08:59.016Z,20.50
2019-04-21T17:11:31.712Z,20.48
2019-04-21T17:13:58.268Z,20.54
2019-04-21T17:16:51.458Z,20.39
2019-04-21T17:19:06.191Z,20.35
2019-04-21T17:21:28.061Z,20.33
2019-04-21T17:23:56.936Z,20.26
2019-04-21T17:26:26.797Z,20.28
2019-04-21T17:28:56.622Z,20.23
2019-04-21T17:31:26.656Z,20.16
2019-04-21T17:34:02.067Z,20.11
2019-04-21T17:36:29.428Z,20.04
2019-04-21T17:38:59.988Z,19.96
2019-04-21T17:41:37.694Z,19.74
2019-04-21T17:44:00.252Z,19.72
2019-04-21T17:46:38.844Z,19.70
2019-04-21T17:48:59.231Z,19.70
2019-04-21T17:51:51.771Z,19.69
2019-04-21T17:54:27.654Z,19.64
2019-04-21T17:57:15.347Z,19.58
2019-04-21T17:59:51.192Z,19.54
2019-04-21T18:02:04.030Z,19.47
2019-04-21T18:04:42.946Z,19.40
2019-04-21T18:07:08.096Z,19.32
2019-04-21T18:09:52.901Z,19.35
2019-04-21T18:12:16.647Z,19.24
2019-04-21T18:14:30.533Z,19.19
2019-04-21T18:17:00.391Z,19.13
2019-04-21T18:19:35.942Z,19.11
2019-04-21T18:22:17.408Z,19.03
2019-04-21T18:24:55.657Z,18.94
2019-04-21T18:27:17.726Z,18.91
2019-04-21T18:29:46.539Z,18.80
2019-04-21T18:32:18.517Z,18.69
2019-04-21T18:34:55.167Z,18.64
2019-04-21T18:37:40.854Z,18.56
2019-04-21T18:40:12.330Z,18.50
2019-04-21T18:42:57.023Z,18.38
2019-04-21T18:48:06.695Z,18.22
2019-04-21T18:50:46.015Z,17.98
2019-04-21T18:53:23.804Z,17.95
2019-04-21T18:55:47.196Z,18.02
2019-04-21T18:58:15.243Z,18.17
2019-04-21T19:00:44.158Z,18.31
2019-04-21T19:03:15.588Z,18.50
2019-04-21T19:05:47.820Z,18.57
2019-04-21T19:08:32.807Z,18.56
2019-04-21T19:11:03.935Z,18.46
2019-04-21T19:16:22.796Z,18.41
2019-04-21T19:18:39.736Z,18.39
2019-04-21T19:21:02.722Z,18.53
2019-04-21T19:23:45.212Z,18.45
2019-04-21T19:26:12.320Z,18.37
2019-04-21T19:28:37.968Z,18.19
2019-04-21T19:31:11.571Z,18.11
2019-04-21T19:33:29.735Z,17.94
2019-04-21T19:35:47.640Z,17.86
2019-04-21T19:38:29.164Z,17.79
2019-04-21T19:41:02.055Z,17.75
2019-04-21T19:43:37.077Z,17.61
2019-04-21T19:46:04.325Z,17.41
2019-04-21T19:48:42.310Z,17.46
2019-04-21T19:51:05.567Z,17.31
2019-04-21T19:53:32.913Z,17.09
2019-04-21T19:55:48.128Z,16.62
2019-04-21T19:58:19.483Z,16.48
2019-04-21T20:00:50.709Z,16.23
2019-04-21T20:03:16.946Z,16.04
2019-04-21T20:05:54.900Z,15.80
2019-04-21T20:08:27.788Z,15.67
2019-04-21T20:11:03.927Z,15.49
2019-04-21T20:13:51.389Z,15.37
2019-04-21T20:16:08.058Z,14.70
2019-04-21T20:18:26.151Z,14.78
2019-04-21T20:20:48.151Z,14.49
2019-04-21T20:23:31.546Z,14.58
2019-04-21T20:26:02.321Z,14.56
2019-04-21T20:28:38.060Z,14.59
2019-04-21T20:31:14.767Z,14.56
2019-04-21T20:34:00.053Z,14.41
2019-04-21T20:36:15.042Z,14.43
2019-04-21T20:38:35.944Z,14.43
2019-04-21T20:41:15.312Z,14.37
2019-04-21T20:43:45.633Z,14.39
2019-04-21T20:46:11.813Z,14.38
2019-04-21T20:48:42.892Z,14.32
2019-04-21T20:51:18.339Z,14.29
2019-04-21T20:53:44.982Z,14.29
2019-04-21T20:56:11.459Z,14.32
2019-04-21T20:58:45.263Z,14.30
2019-04-21T21:03:47.879Z,14.19
2019-04-21T21:06:10.942Z,14.14
2019-04-21T21:08:44.521Z,14.09
2019-04-21T21:11:22.012Z,14.06
2019-04-21T21:13:50.680Z,14.00
2019-04-21T21:16:20.190Z,13.93
2019-04-21T21:21:23.000Z,13.90
2019-04-21T21:23:56.260Z,13.94
2019-04-21T21:26:25.555Z,13.85
2019-04-21T21:28:43.038Z,13.83
2019-04-21T21:31:26.559Z,13.73
2019-04-21T21:33:59.257Z,13.67
2019-04-21T21:36:20.870Z,13.67
2019-04-21T21:38:54.561Z,13.61
2019-04-21T21:41:16.350Z,13.59
2019-04-21T21:43:37.879Z,13.56
2019-04-21T21:46:27.155Z,13.54
2019-04-21T21:48:50.135Z,13.44
2019-04-21T21:51:18.166Z,13.43
2019-04-21T21:53:38.755Z,13.36
2019-04-21T21:56:08.888Z,13.43
2019-04-21T21:58:42.344Z,13.36
2019-04-21T22:01:13.171Z,13.36
2019-04-21T22:03:46.220Z,13.37
2019-04-21T22:06:17.524Z,13.30
2019-04-21T22:08:43.618Z,13.25
2019-04-21T22:11:12.118Z,13.22
2019-04-21T22:13:47.521Z,13.15
2019-04-21T22:16:14.404Z,13.06
2019-04-21T22:19:05.624Z,12.97
2019-04-21T22:21:26.366Z,12.88
2019-04-21T22:23:51.508Z,12.81
2019-04-21T22:26:11.555Z,12.75
2019-04-21T22:28:40.099Z,12.64
2019-04-21T22:31:15.438Z,12.56
2019-04-21T22:33:45.769Z,12.49
2019-04-21T22:36:21.001Z,12.07
2019-04-21T22:38:55.155Z,12.24
2019-04-21T22:41:18.929Z,12.13
2019-04-21T22:43:43.816Z,12.12
2019-04-21T22:46:12.395Z,12.10
2019-04-21T22:48:40.934Z,11.94
2019-04-21T22:51:20.632Z,11.97
2019-04-21T22:53:46.686Z,11.95
2019-04-21T22:56:17.620Z,11.84
2019-04-21T22:58:42.919Z,11.83
2019-04-21T23:01:11.013Z,11.81
2019-04-21T23:03:47.132Z,11.73
2019-04-21T23:06:19.199Z,11.70
2019-04-21T23:08:43.687Z,11.66
2019-04-21T23:11:12.500Z,11.63
2019-04-21T23:13:47.315Z,11.58
2019-04-21T23:16:13.929Z,11.49
2019-04-21T23:18:59.694Z,11.39
2019-04-21T23:21:27.817Z,11.38
2019-04-21T23:24:05.860Z,11.20
2019-04-21T23:26:32.849Z,11.18
2019-04-21T23:29:10.969Z,11.13
2019-04-21T23:31:36.259Z,11.11
2019-04-21T23:33:48.303Z,11.03
2019-04-21T23:36:21.347Z,10.98
2019-04-21T23:38:50.121Z,10.85
2019-04-21T23:41:17.428Z,10.89
2019-04-21T23:43:53.160Z,10.81
2019-04-21T23:46:25.734Z,10.78
2019-04-21T23:49:03.835Z,10.78
2019-04-21T23:51:30.181Z,10.66
2019-04-21T23:53:49.134Z,10.58
2019-04-21T23:56:23.155Z,10.52
2019-04-21T23:58:56.228Z,10.53
